Time;durP1;ratioP1;P1;durP2;ratioP2;P2;SDS_P1;SDS_P2;PMS_P1;PMS_P2;Temp;Humidity;BMP_temperature;BMP_pressure;BME280_temperature;BME280_humidity;BME280_pressure;Samples;Min_cycle;Max_cycle;Signal;HPM_P1;HPM_P2
2023/05/01 00:00:07;;;;;;;;;19.67;19.00;;;;;16.51;50.92;101290.03;5098483;27;46227;-70
2023/05/01 00:02:32;;;;;;;;;25.33;18.33;;;;;16.47;51.22;101273.44;5098196;27;45485;-71
2023/05/01 00:04:58;;;;;;;;;21.00;18.33;;;;;16.16;51.28;101233.03;5098912;27;45324;-70
2023/05/01 00:07:24;;;;;;;;;26.33;22.00;;;;;15.57;51.24;101141.16;5098663;27;45275;-68
2023/05/01 00:09:50;;;;;;;;;18.67;17.33;;;;;15.95;51.45;101209.41;5097952;27;46114;-71
2023/05/01 00:12:16;;;;;;;;;23.00;17.67;;;;;16.18;51.77;101249.78;5098283;27;45439;-69
2023/05/01 00:14:41;;;;;;;;;18.33;16.33;;;;;16.08;52.01;101228.50;5098370;27;45505;-71
2023/05/01 00:17:06;;;;;;;;;19.33;16.33;;;;;16.23;51.96;101254.66;5098568;27;45470;-70
2023/05/01 00:19:32;;;;;;;;;22.33;19.33;;;;;16.03;52.13;101220.13;5098383;27;46273;-72
2023/05/01 00:21:57;;;;;;;;;21.33;19.00;;;;;16.31;52.60;101268.06;5098192;27;45461;-69
2023/05/01 00:24:23;;;;;;;;;22.00;18.67;;;;;16.29;52.36;101267.41;5097889;27;45463;-71
2023/05/01 00:26:48;;;;;;;;;21.33;19.00;;;;;16.29;52.72;101268.25;5097879;27;45205;-68
2023/05/01 00:29:14;;;;;;;;;23.33;23.33;;;;;16.28;52.33;101263.03;5097976;27;45545;-70
2023/05/01 00:31:41;;;;;;;;;19.67;19.33;;;;;16.25;52.81;101269.59;5079490;27;45426;-70
2023/05/01 00:34:06;;;;;;;;;20.00;20.00;;;;;16.09;52.58;101235.56;5098055;27;45270;-70
2023/05/01 00:36:32;;;;;;;;;22.00;21.33;;;;;16.24;52.73;101250.97;5098323;27;45505;-69
2023/05/01 00:38:57;;;;;;;;;21.00;20.00;;;;;16.04;52.58;101235.22;5097739;27;46214;-71
2023/05/01 00:41:22;;;;;;;;;20.33;18.33;;;;;15.97;52.82;101218.09;5097779;27;46450;-70
2023/05/01 00:43:47;;;;;;;;;21.00;19.00;;;;;16.17;52.72;101258.84;5098126;27;45317;-70
2023/05/01 00:46:13;;;;;;;;;18.33;18.33;;;;;16.17;52.78;101244.59;5079791;27;45431;-70
2023/05/01 00:48:39;;;;;;;;;22.33;20.00;;;;;16.08;52.77;101249.97;5097685;27;46241;-68
2023/05/01 00:51:07;;;;;;;;;20.67;18.33;;;;;15.30;52.92;101107.47;5097608;27;45436;-69
2023/05/01 00:53:33;;;;;;;;;24.67;24.00;;;;;16.08;53.11;101235.72;5079500;27;45543;-69
2023/05/01 00:55:58;;;;;;;;;25.67;23.00;;;;;15.98;53.16;101222.47;5097577;27;45232;-69
2023/05/01 00:58:24;;;;;;;;;22.33;20.33;;;;;15.94;53.43;101218.44;5097558;27;45670;-71
2023/05/01 01:00:49;;;;;;;;;22.33;19.67;;;;;15.96;53.38;101243.25;5097139;27;51392;-69
2023/05/01 01:03:15;;;;;;;;;20.33;17.67;;;;;15.68;53.57;101205.19;5097753;27;45736;-69
2023/05/01 01:05:48;;;;;;;;;26.00;23.00;;;;;15.47;53.54;101157.41;5079640;27;45535;-70
2023/05/01 01:08:23;;;;;;;;;22.67;21.00;;;;;15.87;53.54;101240.75;5097401;27;45743;-71
2023/05/01 01:11:07;;;;;;;;;21.33;21.33;;;;;15.79;53.48;101226.31;5097241;27;45320;-69
2023/05/01 01:13:46;;;;;;;;;22.33;20.33;;;;;15.78;53.93;101210.38;5079291;27;45459;-69
2023/05/01 01:16:29;;;;;;;;;20.67;19.33;;;;;15.75;53.88;101214.25;5097728;27;45523;-70
2023/05/01 01:19:20;;;;;;;;;23.33;23.33;;;;;15.47;53.99;101178.84;5078918;27;48001;-70
2023/05/01 01:21:50;;;;;;;;;21.67;21.33;;;;;15.42;53.94;101170.47;5096956;27;45463;-70
2023/05/01 01:24:37;;;;;;;;;26.33;23.33;;;;;15.66;54.10;101204.53;5097426;27;45351;-69
2023/05/01 01:27:46;;;;;;;;;26.33;24.00;;;;;15.62;54.11;101205.03;5097257;27;45592;-70
2023/05/01 01:30:24;;;;;;;;;32.33;27.00;;;;;15.59;54.26;101208.03;5097092;27;46013;-68
2023/05/01 01:33:09;;;;;;;;;26.33;24.67;;;;;15.30;53.99;101169.09;5097133;27;45278;-70
2023/05/01 01:35:38;;;;;;;;;23.33;23.00;;;;;15.50;54.08;101188.38;5078732;27;45574;-70
2023/05/01 01:38:09;;;;;;;;;30.67;26.33;;;;;15.50;54.38;101199.94;5101162;27;45426;-70
2023/05/01 01:40:42;;;;;;;;;25.67;22.33;;;;;15.47;54.04;101200.28;5100597;27;45553;-70
2023/05/01 01:43:12;;;;;;;;;23.67;23.67;;;;;15.48;54.24;101203.81;5100684;27;45364;-68
2023/05/01 01:45:45;;;;;;;;;22.33;19.33;;;;;15.45;54.26;101196.94;5100700;27;45322;-69
2023/05/01 01:48:16;;;;;;;;;26.33;25.33;;;;;15.44;54.38;101203.28;5100849;27;45376;-70
2023/05/01 01:50:44;;;;;;;;;26.00;22.00;;;;;15.43;54.68;101188.22;5100232;27;46380;-69
2023/05/01 01:53:12;;;;;;;;;28.67;25.33;;;;;15.29;54.47;101186.16;5100416;27;45306;-68
2023/05/01 01:55:40;;;;;;;;;23.67;23.67;;;;;15.21;54.33;101164.72;5082298;27;45597;-69
2023/05/01 01:58:08;;;;;;;;;26.00;24.00;;;;;14.39;54.53;101031.59;5100676;27;45335;-68
2023/05/01 02:00:34;;;;;;;;;26.33;23.67;;;;;15.37;54.52;101209.47;5100091;27;46340;-69
2023/05/01 02:03:01;;;;;;;;;28.00;25.00;;;;;14.70;54.65;101094.28;5081815;27;45376;-69
2023/05/01 02:05:27;;;;;;;;;27.00;25.00;;;;;15.17;55.02;101176.75;5081844;27;45311;-69
2023/05/01 02:07:55;;;;;;;;;28.00;24.67;;;;;15.14;54.79;101177.09;5100616;27;45566;-71
2023/05/01 02:10:22;;;;;;;;;23.67;22.00;;;;;15.30;54.86;101208.44;5100310;27;46426;-70
2023/05/01 02:12:50;;;;;;;;;31.00;26.00;;;;;14.99;54.96;101170.66;5100318;27;45354;-70
2023/05/01 02:15:17;;;;;;;;;27.67;24.67;;;;;14.99;55.49;101170.66;5100314;27;45308;-69
2023/05/01 02:17:43;;;;;;;;;25.00;25.00;;;;;14.94;55.85;101171.16;5100412;27;45494;-69
2023/05/01 02:20:11;;;;;;;;;21.67;20.67;;;;;15.16;56.04;101213.41;5099883;27;45937;-70
2023/05/01 02:22:39;;;;;;;;;27.67;23.67;;;;;14.86;56.01;101173.81;5100222;27;45540;-69
2023/05/01 02:25:09;;;;;;;;;24.33;23.00;;;;;15.00;56.23;101191.09;5099878;27;45262;-68
2023/05/01 02:27:37;;;;;;;;;28.67;24.67;;;;;15.01;55.90;101201.63;5100310;27;45428;-70
2023/05/01 02:30:04;;;;;;;;;23.00;20.33;;;;;15.03;55.64;101212.22;5081519;27;47539;-70
2023/05/01 02:32:30;;;;;;;;;22.00;22.00;;;;;14.88;55.65;101204.78;5099978;27;45321;-68
2023/05/01 02:34:56;;;;;;;;;27.67;20.67;;;;;14.84;55.46;101187.38;5099982;27;45509;-68
2023/05/01 02:37:22;;;;;;;;;25.33;23.33;;;;;14.83;55.42;101206.28;5098865;27;45580;-69
2023/05/01 02:39:47;;;;;;;;;21.33;21.33;;;;;14.87;55.62;101207.63;5099731;27;45577;-75
2023/05/01 02:42:15;;;;;;;;;28.33;24.67;;;;;14.87;55.80;101224.53;5081242;27;46001;-70
2023/05/01 02:44:55;;;;;;;;;24.00;23.33;;;;;14.57;55.90;101172.34;5099988;27;45501;-70
2023/05/01 02:47:23;;;;;;;;;25.67;24.33;;;;;14.80;56.27;101223.47;5099677;27;45259;-69
2023/05/01 02:49:50;;;;;;;;;24.67;24.67;;;;;14.52;56.58;101181.84;5098811;27;45804;-70
2023/05/01 02:52:18;;;;;;;;;27.33;23.67;;;;;14.73;56.28;101221.59;5099311;27;45496;-70
2023/05/01 02:54:44;;;;;;;;;25.33;22.33;;;;;14.28;56.77;101142.41;5099520;27;45221;-69
2023/05/01 02:57:10;;;;;;;;;24.67;23.33;;;;;14.69;56.56;101213.06;5099665;27;45505;-71
2023/05/01 02:59:36;;;;;;;;;22.67;20.00;;;;;14.62;56.73;101212.03;5099177;27;46522;-69
2023/05/01 03:02:01;;;;;;;;;18.33;18.33;;;;;14.69;56.67;101215.72;5099497;27;45258;-68
2023/05/01 03:04:27;;;;;;;;;23.00;20.00;;;;;13.91;56.60;101091.84;5099642;27;45202;-69
2023/05/01 03:06:53;;;;;;;;;25.33;23.33;;;;;14.67;56.94;101216.88;5099789;27;45232;-69
2023/05/01 03:09:19;;;;;;;;;26.33;25.00;;;;;14.66;56.95;101218.72;5080720;27;48098;-69
2023/05/01 03:11:44;;;;;;;;;26.67;26.00;;;;;14.54;57.10;101202.09;5098689;27;45406;-70
2023/05/01 03:14:10;;;;;;;;;23.33;21.00;;;;;14.63;57.03;101219.06;5080801;27;45359;-68
2023/05/01 03:16:35;;;;;;;;;26.00;24.33;;;;;14.59;57.53;101210.47;5099381;27;45394;-71
2023/05/01 03:19:01;;;;;;;;;23.00;20.33;;;;;14.57;57.33;101200.94;5099402;27;45821;-71
2023/05/01 03:21:26;;;;;;;;;25.00;22.33;;;;;14.35;57.50;101170.19;5099122;27;45384;-69
2023/05/01 03:23:51;;;;;;;;;24.67;23.67;;;;;14.55;57.46;101202.94;5080260;27;60734;-70
2023/05/01 03:26:17;;;;;;;;;28.67;25.33;;;;;14.60;57.74;101216.66;5099059;27;45359;-69
2023/05/01 03:28:42;;;;;;;;;25.67;25.67;;;;;14.57;57.55;101211.63;5099100;27;45769;-69
2023/05/01 03:31:07;;;;;;;;;31.67;28.33;;;;;14.57;57.55;101217.00;5098576;27;61569;-72
2023/05/01 03:33:33;;;;;;;;;24.00;20.00;;;;;14.55;58.01;101224.34;5099069;27;45303;-70
2023/05/01 03:36:03;;;;;;;;;28.33;27.67;;;;;13.81;57.75;101093.78;5099453;27;45498;-70
2023/05/01 03:38:29;;;;;;;;;29.33;28.33;;;;;14.27;57.94;101181.69;5098904;27;45831;-69
2023/05/01 03:40:55;;;;;;;;;30.67;29.00;;;;;13.60;58.81;101067.41;5098751;27;45430;-69
2023/05/01 03:43:21;;;;;;;;;34.67;32.00;;;;;14.33;59.29;101193.56;5099181;27;45335;-69
2023/05/01 03:45:46;;;;;;;;;37.33;34.00;;;;;14.39;59.52;101219.69;5099047;27;45273;-68
2023/05/01 03:48:13;;;;;;;;;33.67;30.33;;;;;14.37;59.80;101224.34;5098464;27;54020;-70
2023/05/01 03:50:38;;;;;;;;;39.00;35.33;;;;;14.32;60.76;101219.47;5080458;27;46147;-69
2023/05/01 03:53:03;;;;;;;;;39.33;36.00;;;;;14.22;61.35;101226.78;5098656;27;46138;-70
2023/05/01 03:55:29;;;;;;;;;45.00;35.33;;;;;14.19;61.18;101223.56;5098736;27;45406;-69
2023/05/01 03:57:54;;;;;;;;;36.33;33.33;;;;;14.19;61.32;101224.38;5098517;27;45878;-69
2023/05/01 04:00:20;;;;;;;;;39.33;34.67;;;;;14.22;61.45;101224.09;5098423;27;45283;-69
2023/05/01 04:02:46;;;;;;;;;41.00;35.33;;;;;13.88;61.49;101162.50;5098597;27;45417;-68
2023/05/01 04:05:12;;;;;;;;;45.00;36.33;;;;;14.20;61.97;101231.41;5080317;27;45643;-70
2023/05/01 04:07:37;;;;;;;;;42.00;36.33;;;;;13.59;62.26;101128.03;5098547;27;46280;-70
2023/05/01 04:10:03;;;;;;;;;42.67;37.67;;;;;13.95;61.82;101194.78;5098129;27;45430;-70
2023/05/01 04:12:29;;;;;;;;;44.00;35.67;;;;;14.10;62.22;101214.63;5098365;27;45485;-70
2023/05/01 04:14:54;;;;;;;;;19.33;13.00;;;;;14.11;62.27;101223.50;5080377;27;45617;-70
2023/05/01 04:17:19;;;;;;;;;44.33;36.67;;;;;14.07;62.30;101219.47;5098384;27;46008;-68
2023/05/01 04:19:46;;;;;;;;;48.33;38.33;;;;;13.31;62.59;101092.56;5098277;27;45527;-70
2023/05/01 04:22:12;;;;;;;;;47.33;40.00;;;;;14.06;62.77;101223.97;5098439;27;45485;-71
2023/05/01 04:24:37;;;;;;;;;48.00;39.33;;;;;14.07;62.96;101209.59;5098626;27;45267;-70
2023/05/01 04:27:04;;;;;;;;;51.67;43.67;;;;;14.04;63.05;101217.94;5097899;27;45970;-70
2023/05/01 04:29:29;;;;;;;;;48.00;40.33;;;;;13.74;63.65;101178.25;5098310;27;45293;-69
2023/05/01 04:31:55;;;;;;;;;54.00;41.00;;;;;13.94;63.71;101226.03;5079712;27;45290;-69
2023/05/01 04:34:20;;;;;;;;;53.33;43.33;;;;;13.62;63.56;101167.81;5080238;27;45440;-68
2023/05/01 04:36:45;;;;;;;;;47.00;39.67;;;;;13.83;63.47;101190.69;5098037;27;45682;-70
2023/05/01 04:39:11;;;;;;;;;52.67;42.00;;;;;14.07;63.31;101247.03;5097526;27;54155;-70
2023/05/01 04:41:36;;;;;;;;;51.00;41.67;;;;;13.98;63.23;101210.53;5078958;27;45272;-69
2023/05/01 04:44:01;;;;;;;;;50.33;42.00;;;;;13.87;63.22;101192.06;5097885;27;45263;-68
2023/05/01 04:46:27;;;;;;;;;59.67;47.33;;;;;13.85;63.88;101197.56;5097755;27;46223;-70
2023/05/01 04:48:52;;;;;;;;;53.00;41.67;;;;;13.86;63.62;101201.09;5097829;27;45232;-68
2023/05/01 04:51:18;;;;;;;;;56.33;43.33;;;;;13.73;63.73;101189.94;5097647;27;45984;-69
2023/05/01 04:53:44;;;;;;;;;51.33;41.33;;;;;13.91;63.89;101217.50;5097824;27;45248;-69
2023/05/01 04:56:09;;;;;;;;;52.00;43.00;;;;;13.20;63.65;101078.59;5096992;27;50470;-67
2023/05/01 04:58:34;;;;;;;;;52.67;42.67;;;;;14.16;63.69;101235.41;5097534;27;45258;-70
2023/05/01 05:01:00;;;;;;;;;56.67;44.33;;;;;14.14;63.48;101242.75;5097478;27;45694;-70
2023/05/01 05:03:25;;;;;;;;;57.33;45.67;;;;;13.83;63.54;101186.19;5097869;27;45526;-69
2023/05/01 05:05:50;;;;;;;;;53.67;45.00;;;;;14.23;63.19;101231.13;5096794;27;63917;-71
2023/05/01 05:08:15;;;;;;;;;53.00;43.33;;;;;14.33;63.50;101247.06;5097549;27;45725;-69
2023/05/01 05:10:41;;;;;;;;;50.33;43.67;;;;;14.15;63.24;101233.72;5097284;27;45319;-72
2023/05/01 05:13:06;;;;;;;;;51.67;43.33;;;;;14.40;62.96;101244.59;5097318;27;45272;-69
2023/05/01 05:15:31;;;;;;;;;57.33;46.33;;;;;14.46;62.71;101252.03;5096998;27;45557;-70
2023/05/01 05:17:57;;;;;;;;;57.00;44.00;;;;;13.91;62.29;101150.66;5096788;27;55525;-70
2023/05/01 05:20:22;;;;;;;;;54.33;44.67;;;;;14.24;62.19;101195.38;5097310;27;57840;-69
2023/05/01 05:22:47;;;;;;;;;54.33;43.67;;;;;14.50;62.54;101240.03;5097048;27;52051;-69
2023/05/01 05:25:13;;;;;;;;;58.00;45.67;;;;;14.64;62.03;101266.22;5097146;27;45559;-69
2023/05/01 05:27:38;;;;;;;;;58.00;46.33;;;;;14.20;61.84;101185.94;5096990;27;45605;-69
2023/05/01 05:30:07;;;;;;;;;59.00;47.00;;;;;13.90;62.01;101135.63;5078614;27;57909;-71
2023/05/01 05:32:32;;;;;;;;;57.33;45.67;;;;;14.24;61.84;101207.91;5097583;27;45295;-69
2023/05/01 05:34:58;;;;;;;;;54.67;46.67;;;;;14.51;62.02;101239.03;5096219;27;59419;-70
2023/05/01 05:37:24;;;;;;;;;56.00;44.00;;;;;14.69;61.96;101263.06;5078421;27;45378;-70
2023/05/01 05:39:50;;;;;;;;;51.00;43.33;;;;;14.75;61.54;101267.78;5096985;27;45328;-69
2023/05/01 05:42:15;;;;;;;;;54.33;43.00;;;;;14.65;61.22;101234.94;5096818;27;45532;-69
2023/05/01 05:44:40;;;;;;;;;54.00;42.33;;;;;14.89;61.18;101265.34;5096938;27;46698;-72
2023/05/01 05:47:06;;;;;;;;;60.67;48.33;;;;;14.82;60.92;101231.38;5096228;27;64272;-68
2023/05/01 05:49:31;;;;;;;;;55.00;43.67;;;;;14.97;60.60;101261.03;5096371;27;57637;-69
2023/05/01 05:51:56;;;;;;;;;62.33;50.00;;;;;14.74;60.42;101208.06;5096969;27;45420;-69
2023/05/01 05:54:22;;;;;;;;;54.00;43.33;;;;;14.95;60.10;101245.13;5096831;27;45902;-69
2023/05/01 05:56:47;;;;;;;;;60.00;45.67;;;;;14.39;59.91;101144.78;5096731;27;45772;-69
2023/05/01 05:59:12;;;;;;;;;47.67;37.33;;;;;14.99;59.87;101242.97;5097335;27;45275;-70
2023/05/01 06:01:39;;;;;;;;;55.33;45.00;;;;;14.50;59.58;101143.72;5096759;27;45496;-72
2023/05/01 06:04:05;;;;;;;;;58.33;45.33;;;;;15.44;59.44;101270.28;5096792;27;45927;-70
2023/05/01 06:06:31;;;;;;;;;53.67;42.33;;;;;15.15;58.75;101184.13;5096691;27;45282;-68
2023/05/01 06:08:57;;;;;;;;;53.67;44.00;;;;;15.30;58.25;101193.22;5078309;27;45485;-70
2023/05/01 06:11:22;;;;;;;;;59.00;43.67;;;;;15.70;57.87;101245.25;5096487;27;45506;-68
2023/05/01 06:13:48;;;;;;;;;52.67;43.00;;;;;15.89;57.84;101262.88;5096442;27;45515;-70
2023/05/01 06:16:14;;;;;;;;;49.00;39.33;;;;;15.57;57.88;101204.63;5096635;27;45339;-70
2023/05/01 06:18:40;;;;;;;;;56.67;44.67;;;;;15.80;57.53;101229.81;5096605;27;45501;-70
2023/05/01 06:21:05;;;;;;;;;50.33;42.33;;;;;16.06;57.50;101272.59;5078640;27;45377;-69
2023/05/01 06:23:32;;;;;;;;;53.33;42.67;;;;;15.83;57.09;101218.78;5097497;27;46714;-70
2023/05/01 06:25:58;;;;;;;;;53.00;42.33;;;;;15.48;57.25;101152.88;5099730;27;45307;-70
2023/05/01 06:28:23;;;;;;;;;53.67;44.00;;;;;16.12;56.94;101259.34;5100054;27;45501;-72
2023/05/01 06:30:49;;;;;;;;;70.75;54.00;;;;;16.09;56.97;101258.84;5100074;27;45532;-70
2023/05/01 06:33:14;;;;;;;;;53.00;43.00;;;;;16.09;57.09;101250.81;5099793;27;46649;-72
2023/05/01 06:35:39;;;;;;;;;52.33;41.00;;;;;15.68;57.11;101182.91;5099745;27;45281;-71
2023/05/01 06:38:05;;;;;;;;;53.67;43.00;;;;;15.51;56.79;101169.47;5099981;27;45458;-70
2023/05/01 06:40:31;;;;;;;;;57.00;45.67;;;;;15.75;57.23;101221.44;5099824;27;45408;-71
2023/05/01 06:42:57;;;;;;;;;55.67;42.33;;;;;15.95;57.83;101273.75;5081433;27;46599;-69
2023/05/01 06:45:22;;;;;;;;;53.00;43.67;;;;;15.61;57.55;101211.38;5099588;27;45828;-68
2023/05/01 06:47:47;;;;;;;;;50.67;42.67;;;;;15.87;57.63;101271.06;5099808;27;45357;-69
2023/05/01 06:50:13;;;;;;;;;53.33;44.00;;;;;16.08;57.86;101275.97;5099813;27;45264;-70
2023/05/01 06:52:39;;;;;;;;;57.67;43.33;;;;;16.63;56.62;101262.69;5099401;27;46371;-72
2023/05/01 06:55:04;;;;;;;;;54.67;43.00;;;;;17.55;54.37;101279.16;5099477;27;45974;-71
2023/05/01 06:57:30;;;;;;;;;53.67;42.33;;;;;18.32;52.47;101260.31;5099499;27;45327;-69
2023/05/01 06:59:55;;;;;;;;;51.33;40.33;;;;;19.14;50.58;101267.38;5099967;27;45535;-70
2023/05/01 07:02:21;;;;;;;;;52.00;40.33;;;;;20.01;48.59;101269.19;5098993;27;45496;-71
2023/05/01 07:04:46;;;;;;;;;54.67;43.33;;;;;20.33;46.96;101197.63;5097799;27;45350;-69
2023/05/01 07:07:12;;;;;;;;;51.33;38.00;;;;;21.62;45.26;101268.19;5099707;27;45404;-72
2023/05/01 07:09:37;;;;;;;;;52.00;41.00;;;;;22.38;42.84;101272.31;5099795;27;45339;-69
2023/05/01 07:12:04;;;;;;;;;52.00;41.67;;;;;22.86;41.47;101277.50;5099260;27;45650;-71
2023/05/01 07:14:29;;;;;;;;;50.33;40.67;;;;;23.23;40.18;101265.09;5080909;27;45397;-71
2023/05/01 07:16:55;;;;;;;;;48.33;38.67;;;;;23.56;39.86;101286.66;5099418;27;45850;-70
2023/05/01 07:19:20;;;;;;;;;47.67;39.00;;;;;23.54;39.02;101277.06;5099339;27;45229;-70
2023/05/01 07:21:46;;;;;;;;;39.00;35.67;;;;;23.74;38.73;101242.50;5099320;27;45562;-70
2023/05/01 07:24:12;;;;;;;;;44.33;36.67;;;;;24.24;38.17;101297.75;5099460;27;45478;-69
2023/05/01 07:26:37;;;;;;;;;50.67;38.67;;;;;24.08;37.71;101271.13;5080671;27;45330;-71
2023/05/01 07:29:03;;;;;;;;;38.33;35.33;;;;;23.92;37.73;101237.16;5099458;27;45324;-70
2023/05/01 07:31:29;;;;;;;;;40.33;34.67;;;;;24.47;37.74;101272.72;5099051;27;45566;-70
2023/05/01 07:33:54;;;;;;;;;47.00;36.33;;;;;24.32;36.41;101274.94;5080374;27;46272;-69
2023/05/01 07:36:21;;;;;;;;;37.00;33.67;;;;;24.19;37.18;101283.97;5099605;27;45552;-70
2023/05/01 07:38:47;;;;;;;;;43.00;36.33;;;;;23.61;37.48;101220.88;5099302;27;45230;-70
2023/05/01 07:41:12;;;;;;;;;41.67;34.67;;;;;23.87;37.78;101285.06;5098408;27;48054;-72
2023/05/01 07:43:37;;;;;;;;;43.00;35.67;;;;;23.53;38.08;101299.81;5098816;27;45458;-71
2023/05/01 07:46:04;;;;;;;;;44.00;35.00;;;;;22.99;39.17;101261.19;5080478;27;49152;-71
2023/05/01 07:48:30;;;;;;;;;40.33;35.00;;;;;23.00;38.97;101289.13;5099797;27;45502;-73
2023/05/01 07:50:56;;;;;;;;;38.00;34.33;;;;;22.72;39.71;101284.78;5099260;27;45572;-69
2023/05/01 07:53:22;;;;;;;;;39.00;35.00;;;;;21.94;39.94;101190.81;5099597;27;45328;-69
2023/05/01 07:55:48;;;;;;;;;33.00;31.33;;;;;21.88;40.99;101246.63;5100084;27;45481;-70
2023/05/01 07:58:14;;;;;;;;;43.00;33.67;;;;;21.13;41.81;101193.53;5098901;27;45439;-70
2023/05/01 08:00:39;;;;;;;;;36.67;31.00;;;;;20.93;42.66;101258.31;5098597;27;46756;-71
2023/05/01 08:03:05;;;;;;;;;39.67;32.33;;;;;19.94;44.02;101181.97;5080145;27;45616;-70
2023/05/01 08:05:32;;;;;;;;;34.00;30.67;;;;;20.44;44.79;101317.84;5098489;27;55055;-68
2023/05/01 08:07:58;;;;;;;;;32.67;31.33;;;;;20.24;45.02;101302.25;5080907;27;45401;-69
2023/05/01 08:10:23;;;;;;;;;33.67;30.00;;;;;19.79;45.78;101297.22;5098489;27;45777;-70
2023/05/01 08:12:49;;;;;;;;;28.67;28.67;;;;;18.39;46.09;101095.16;5098483;27;45275;-70
2023/05/01 08:15:14;;;;;;;;;29.33;24.00;;;;;19.12;46.47;101236.25;5098693;27;45174;-70
2023/05/01 08:17:39;;;;;;;;;33.33;29.33;;;;;18.60;46.88;101160.88;5079999;27;49550;-71
2023/05/01 08:20:06;;;;;;;;;29.33;25.67;;;;;19.47;46.96;101314.66;5098174;27;53406;-71
2023/05/01 08:22:31;;;;;;;;;27.00;25.33;;;;;19.49;47.06;101318.84;5097971;27;45297;-71
2023/05/01 08:24:57;;;;;;;;;33.67;30.33;;;;;19.41;46.86;101311.66;5098163;27;45431;-70
2023/05/01 08:27:22;;;;;;;;;26.33;22.67;;;;;19.51;46.74;101311.38;5098355;27;45335;-69
2023/05/01 08:29:48;;;;;;;;;26.33;24.67;;;;;19.61;46.82;101330.81;5080042;27;47994;-69
2023/05/01 08:32:14;;;;;;;;;25.00;25.00;;;;;19.34;46.40;101270.31;5098398;27;45606;-69
2023/05/01 08:34:40;;;;;;;;;21.33;21.33;;;;;19.69;46.25;101309.16;5079899;27;45238;-69
2023/05/01 08:37:05;;;;;;;;;25.67;24.33;;;;;19.84;46.25;101321.78;5098307;27;45292;-69
2023/05/01 08:39:30;;;;;;;;;23.67;21.67;;;;;19.96;45.91;101325.63;5097806;27;46831;-72
2023/05/01 08:41:57;;;;;;;;;24.67;22.33;;;;;20.00;45.61;101303.47;5097939;27;45403;-71
2023/05/01 08:44:24;;;;;;;;;24.67;19.67;;;;;20.44;44.87;101301.63;5098608;27;45244;-72
2023/05/01 08:47:15;;;;;;;;;24.00;24.00;;;;;19.67;44.85;101216.78;5098194;27;45244;-70
2023/05/01 08:49:42;;;;;;;;;21.33;20.33;;;;;19.72;45.61;101246.72;5079546;27;47841;-71
2023/05/01 08:52:10;;;;;;;;;23.00;23.00;;;;;20.14;45.30;101322.50;5097525;27;45527;-71
2023/05/01 08:54:38;;;;;;;;;28.00;23.33;;;;;19.64;46.17;101306.19;5098256;27;45261;-70
2023/05/01 08:57:06;;;;;;;;;26.33;21.33;;;;;19.71;46.53;101317.88;5098061;27;45451;-70
2023/05/01 08:59:35;;;;;;;;;22.00;19.33;;;;;19.59;46.69;101303.22;5079429;27;47774;-70
2023/05/01 09:02:04;;;;;;;;;27.00;23.67;;;;;19.11;47.04;101246.19;5097213;27;45243;-71
2023/05/01 09:04:35;;;;;;;;;20.00;20.00;;;;;19.50;47.22;101320.50;5097520;27;45436;-69
2023/05/01 09:07:01;;;;;;;;;25.33;22.67;;;;;19.55;47.43;101352.34;5097964;27;45205;-70
2023/05/01 09:09:28;;;;;;;;;30.33;26.33;;;;;19.49;47.94;101340.41;5079314;27;47677;-71
2023/05/01 09:12:07;;;;;;;;;24.67;23.67;;;;;19.09;48.22;101321.00;5098158;27;45538;-70
2023/05/01 09:14:33;;;;;;;;;26.33;21.67;;;;;18.99;48.77;101309.66;5098128;27;45444;-71
2023/05/01 09:16:58;;;;;;;;;26.67;20.33;;;;;18.84;48.83;101287.28;5079447;27;45296;-71
2023/05/01 09:19:25;;;;;;;;;23.33;21.33;;;;;19.09;49.09;101328.25;5097405;27;45538;-70
2023/05/01 09:21:53;;;;;;;;;21.00;21.00;;;;;18.87;49.38;101307.59;5079061;27;45724;-70
2023/05/01 09:24:18;;;;;;;;;19.67;19.00;;;;;18.75;49.46;101289.19;5079059;27;45308;-69
2023/05/01 09:26:43;;;;;;;;;22.00;19.67;;;;;19.00;49.42;101346.34;5079154;27;45653;-69
2023/05/01 09:29:09;;;;;;;;;22.33;19.33;;;;;18.91;49.91;101352.84;5078859;27;47768;-72
2023/05/01 09:31:35;;;;;;;;;18.67;16.33;;;;;18.87;49.80;101345.31;5097409;27;45367;-70
2023/05/01 09:34:02;;;;;;;;;21.67;17.00;;;;;18.83;50.26;101345.69;5097227;27;45460;-70
2023/05/01 09:36:32;;;;;;;;;24.67;19.67;;;;;18.49;50.86;101334.53;5097412;27;45488;-71
2023/05/01 09:38:59;;;;;;;;;12.67;11.33;;;;;18.39;51.72;101350.91;5096948;27;46217;-69
2023/05/01 09:41:26;;;;;;;;;14.33;14.33;;;;;17.80;51.49;101248.44;5096653;27;45480;-71
2023/05/01 09:43:56;;;;;;;;;15.00;15.00;;;;;18.31;51.67;101340.22;5097294;27;45484;-70
2023/05/01 09:46:23;;;;;;;;;18.00;15.67;;;;;17.85;51.95;101280.19;5097332;27;45243;-70
2023/05/01 09:49:02;;;;;;;;;22.00;18.00;;;;;17.96;51.55;101279.75;5097592;27;46902;-70
2023/05/01 09:51:32;;;;;;;;;17.67;15.33;;;;;18.45;51.42;101365.53;5096775;27;45395;-72
2023/05/01 09:54:03;;;;;;;;;18.67;17.00;;;;;17.97;51.42;101272.53;5097372;27;45250;-69
2023/05/01 09:56:30;;;;;;;;;20.33;17.33;;;;;18.57;51.21;101355.16;5097774;27;45310;-69
2023/05/01 09:59:12;;;;;;;;;19.00;17.67;;;;;17.82;51.33;101240.16;5099963;27;46435;-71
2023/05/01 10:01:44;;;;;;;;;17.00;16.67;;;;;18.65;51.30;101363.22;5100505;27;45324;-70
2023/05/01 10:04:11;;;;;;;;;18.67;16.67;;;;;18.80;50.99;101350.59;5082279;27;45415;-69
2023/05/01 10:06:38;;;;;;;;;15.67;14.33;;;;;19.02;50.45;101338.06;5083101;27;45555;-70
2023/05/01 10:09:05;;;;;;;;;16.67;13.00;;;;;19.25;50.00;101356.88;5100204;27;45926;-70
2023/05/01 10:11:47;;;;;;;;;15.67;14.00;;;;;19.31;49.62;101342.66;5100177;27;45450;-70
2023/05/01 10:14:12;;;;;;;;;11.33;11.33;;;;;19.34;49.13;101347.66;5082352;27;45383;-71
2023/05/01 10:16:38;;;;;;;;;10.67;10.33;;;;;18.90;49.76;101310.75;5102157;27;45142;-69
2023/05/01 10:19:04;;;;;;;;;9.67;9.33;;;;;19.10;50.00;101346.94;5101056;27;45688;-70
2023/05/01 10:21:35;;;;;;;;;12.67;10.33;;;;;19.22;49.85;101350.00;5100222;27;45178;-70
2023/05/01 10:24:02;;;;;;;;;13.00;11.67;;;;;19.10;50.03;101336.16;5100413;27;45335;-70
2023/05/01 10:26:28;;;;;;;;;12.67;11.67;;;;;19.15;50.04;101355.28;5100151;27;45568;-73
2023/05/01 10:28:57;;;;;;;;;10.00;9.00;;;;;19.20;50.00;101345.81;5100112;27;46594;-69
2023/05/01 10:31:23;;;;;;;;;11.67;10.33;;;;;19.37;49.82;101337.34;5100667;27;45536;-72
2023/05/01 10:33:49;;;;;;;;;19.00;16.33;;;;;19.39;49.14;101284.06;5100237;27;45341;-72
2023/05/01 10:36:25;;;;;;;;;16.00;14.67;;;;;18.23;48.51;101055.84;5081711;27;45425;-72
2023/05/01 10:38:51;;;;;;;;;16.33;14.00;;;;;20.02;48.38;101290.63;5099832;27;45384;-70
2023/05/01 10:41:36;;;;;;;;;18.00;17.00;;;;;20.67;47.96;101353.56;5080948;27;45562;-69
2023/05/01 10:44:22;;;;;;;;;12.00;12.00;;;;;20.91;46.91;101342.31;5081575;27;45381;-74
2023/05/01 10:46:48;;;;;;;;;11.00;11.00;;;;;21.10;47.01;101348.88;5100332;27;45333;-71
2023/05/01 10:49:14;;;;;;;;;11.67;11.67;;;;;20.58;46.38;101250.19;5081567;27;47361;-72
2023/05/01 10:51:57;;;;;;;;;11.67;11.67;;;;;21.16;46.20;101352.66;5100004;27;45185;-73
2023/05/01 10:54:32;;;;;;;;;16.00;11.33;;;;;21.14;46.57;101347.44;5100089;27;45540;-71
2023/05/01 10:57:02;;;;;;;;;13.67;12.67;;;;;21.22;46.65;101346.44;5099861;27;45491;-68
2023/05/01 10:59:59;;;;;;;;;11.67;11.67;;;;;21.11;46.39;101338.91;5080925;27;48198;-72
2023/05/01 11:02:25;;;;;;;;;10.67;10.67;;;;;21.21;46.83;101350.19;5099643;27;45493;-72
2023/05/01 11:04:52;;;;;;;;;13.00;12.00;;;;;21.19;46.45;101338.72;5099952;27;45350;-71
2023/05/01 11:07:18;;;;;;;;;14.67;12.00;;;;;20.57;46.37;101267.44;5100420;27;45471;-71
2023/05/01 11:09:54;;;;;;;;;13.67;11.33;;;;;20.70;46.88;101293.72;5099266;27;46041;-71